Time;durP1;ratioP1;P1;durP2;ratioP2;P2;SDS_P1;SDS_P2;PMS_P1;PMS_P2;Temp;Humidity;BMP_temperature;BMP_pressure;BME280_temperature;BME280_humidity;BME280_pressure;Samples;Min_cycle;Max_cycle;Signal;HPM_P1;HPM_P2
2021/10/12 00:01:08;;;;;;;9.17;2.37;;;;;;;9.13;86.28;101973.91;4976237;28;20219;-77
2021/10/12 00:03:33;;;;;;;9.40;2.30;;;;;;;9.17;86.32;101975.78;4960361;28;20235;-77
2021/10/12 00:05:59;;;;;;;9.90;2.37;;;;;;;9.14;86.71;101968.00;4975404;28;20211;-79
2021/10/12 00:08:25;;;;;;;6.33;1.93;;;;;;;9.20;86.14;101970.81;4977333;28;20197;-76
2021/10/12 00:10:50;;;;;;;10.30;2.70;;;;;;;9.21;86.23;101964.91;4976070;28;20252;-78
2021/10/12 00:13:16;;;;;;;7.33;2.27;;;;;;;9.26;87.15;101965.09;4974694;28;20280;-80
2021/10/12 00:15:41;;;;;;;12.20;2.53;;;;;;;9.25;86.63;101964.22;4974090;28;20200;-79
2021/10/12 00:18:07;;;;;;;7.87;2.03;;;;;;;9.28;86.44;101950.69;4974070;28;20332;-78
2021/10/12 00:20:32;;;;;;;8.13;2.33;;;;;;;9.29;86.66;101947.31;4974221;28;20244;-77
2021/10/12 00:22:57;;;;;;;7.80;2.20;;;;;;;9.29;86.70;101950.78;4973480;28;20191;-79
2021/10/12 00:25:23;;;;;;;8.93;2.10;;;;;;;9.27;86.29;101939.59;4957354;28;20212;-79
2021/10/12 00:27:49;;;;;;;9.27;2.43;;;;;;;9.27;86.93;101937.03;4957048;28;20685;-78
2021/10/12 00:30:15;;;;;;;6.93;2.13;;;;;;;9.29;86.63;101929.44;4973416;28;20583;-79
2021/10/12 00:32:41;;;;;;;11.97;2.23;;;;;;;9.29;86.25;101927.78;4974760;28;20561;-77
2021/10/12 00:35:07;;;;;;;12.37;2.23;;;;;;;9.29;86.91;101921.78;4989851;28;20295;-78
2021/10/12 00:37:32;;;;;;;6.57;2.00;;;;;;;9.30;86.35;101923.53;4974008;28;20553;-79
2021/10/12 00:39:58;;;;;;;7.33;2.10;;;;;;;9.29;86.24;101926.88;4975558;28;20177;-78
2021/10/12 00:42:23;;;;;;;9.93;2.30;;;;;;;9.30;86.80;101928.66;4973408;28;20752;-79
2021/10/12 00:44:49;;;;;;;10.37;2.70;;;;;;;9.27;86.94;101918.28;4989431;28;20588;-79
2021/10/12 00:47:17;;;;;;;9.70;2.07;;;;;;;9.26;87.58;101922.50;4974474;28;20189;-80
2021/10/12 00:49:42;;;;;;;8.13;2.07;;;;;;;9.29;87.02;101921.78;4989798;28;20685;-79
2021/10/12 00:52:07;;;;;;;13.63;1.90;;;;;;;9.30;87.53;101928.66;4974764;28;20216;-78
2021/10/12 00:54:33;;;;;;;6.10;1.50;;;;;;;9.35;86.87;101924.59;4974795;28;20208;-79
2021/10/12 00:56:58;;;;;;;11.40;2.30;;;;;;;9.38;88.32;101937.50;4972814;28;20543;-79
2021/10/12 00:59:24;;;;;;;12.37;2.80;;;;;;;9.36;89.02;101929.75;4974774;28;20828;-80
2021/10/12 01:01:49;;;;;;;7.93;2.30;;;;;;;9.40;88.98;101930.78;4973434;28;20228;-79
2021/10/12 01:04:15;;;;;;;9.60;2.60;;;;;;;9.37;89.47;101923.84;4973395;28;20212;-78
2021/10/12 01:06:40;;;;;;;6.93;2.50;;;;;;;9.40;89.42;101916.28;4972855;28;20259;-79
2021/10/12 01:09:05;;;;;;;8.30;2.50;;;;;;;9.39;88.47;101932.44;4957222;28;20200;-79
2021/10/12 01:11:33;;;;;;;8.20;1.97;;;;;;;9.42;87.97;101924.91;4973177;28;20255;-79
2021/10/12 01:14:00;;;;;;;7.63;2.20;;;;;;;9.39;88.45;101911.09;4977892;28;20212;-78
2021/10/12 01:16:26;;;;;;;7.27;2.50;;;;;;;9.44;88.35;101907.09;4978253;28;20600;-80
2021/10/12 01:19:05;;;;;;;5.27;2.47;;;;;;;9.44;87.94;101907.94;4978187;28;20189;-80
2021/10/12 01:21:40;;;;;;;7.63;2.40;;;;;;;9.45;88.29;101919.06;4978523;28;20299;-78
2021/10/12 01:24:06;;;;;;;7.47;2.40;;;;;;;9.44;88.33;101924.97;4977731;28;20612;-80
2021/10/12 01:26:33;;;;;;;8.50;2.27;;;;;;;9.46;88.12;101928.47;4976500;28;20252;-79
2021/10/12 01:28:58;;;;;;;7.27;2.50;;;;;;;9.50;88.30;101928.63;4976287;28;20775;-79
2021/10/12 01:31:25;;;;;;;6.47;2.40;;;;;;;9.52;88.94;101913.38;4976482;28;20225;-78
2021/10/12 01:33:50;;;;;;;10.00;2.70;;;;;;;9.55;88.07;101910.94;4977927;28;20189;-79
2021/10/12 01:36:16;;;;;;;7.97;2.63;;;;;;;9.56;88.69;101908.44;4978352;28;20176;-80
2021/10/12 01:38:42;;;;;;;9.30;2.57;;;;;;;9.52;88.56;101909.13;4976836;28;20662;-78
2021/10/12 01:41:08;;;;;;;9.13;2.50;;;;;;;9.53;89.15;101895.53;4976954;28;20204;-79
2021/10/12 01:43:33;;;;;;;10.77;2.13;;;;;;;9.55;88.82;101900.72;4976284;28;20195;-78
2021/10/12 01:46:00;;;;;;;6.73;2.03;;;;;;;9.56;89.17;101889.66;4976851;28;20208;-80
2021/10/12 01:48:25;;;;;;;6.23;2.07;;;;;;;9.56;88.74;101885.44;4977251;28;20191;-78
2021/10/12 01:50:51;;;;;;;7.63;2.20;;;;;;;9.58;89.08;101890.63;4975785;28;20188;-79
2021/10/12 01:53:16;;;;;;;5.80;2.10;;;;;;;9.61;88.41;101889.06;4977156;28;20212;-78
2021/10/12 01:55:41;;;;;;;8.53;1.90;;;;;;;9.62;89.15;101893.34;4959207;28;20205;-79
2021/10/12 01:58:07;;;;;;;6.10;2.10;;;;;;;9.63;88.53;101891.69;4976903;28;20193;-79
2021/10/12 02:00:32;;;;;;;7.77;2.33;;;;;;;9.64;88.93;101885.75;4977069;28;20188;-78
2021/10/12 02:02:57;;;;;;;4.00;1.97;;;;;;;9.63;89.28;101886.56;4975424;28;20601;-78
2021/10/12 02:05:23;;;;;;;7.13;2.13;;;;;;;9.64;89.26;101884.03;4974825;28;20208;-79
2021/10/12 02:07:48;;;;;;;5.60;2.00;;;;;;;9.65;88.84;101875.59;4975144;28;20208;-79
2021/10/12 02:10:14;;;;;;;4.37;1.70;;;;;;;9.65;88.85;101870.47;4973175;28;20251;-79
2021/10/12 02:12:39;;;;;;;5.37;1.73;;;;;;;9.64;89.33;101875.50;4973001;28;20260;-80
2021/10/12 02:15:05;;;;;;;3.70;1.57;;;;;;;9.66;88.35;101868.75;4973963;28;20716;-79
2021/10/12 02:17:30;;;;;;;4.30;1.63;;;;;;;9.65;88.20;101844.00;4988958;28;20189;-80
2021/10/12 02:19:56;;;;;;;2.80;1.43;;;;;;;9.62;88.61;101831.97;4974583;28;20518;-79
2021/10/12 02:22:21;;;;;;;3.67;1.73;;;;;;;9.58;88.67;101822.44;4989007;28;20224;-78
2021/10/12 02:24:46;;;;;;;4.40;1.57;;;;;;;9.59;89.28;101802.88;4973771;28;20208;-78
2021/10/12 02:27:12;;;;;;;4.13;1.40;;;;;;;9.54;88.75;101789.88;4972678;28;20283;-79
2021/10/12 02:29:37;;;;;;;2.73;1.40;;;;;;;9.53;88.55;101787.28;4973037;28;20193;-79
2021/10/12 02:32:03;;;;;;;5.23;1.10;;;;;;;9.48;88.32;101778.56;4973299;28;20680;-77
2021/10/12 02:34:28;;;;;;;5.80;1.37;;;;;;;9.40;89.27;101779.97;4973763;28;20209;-78
2021/10/12 02:36:55;;;;;;;2.17;1.10;;;;;;;9.34;88.81;101772.91;4973678;28;20197;-78
2021/10/12 02:39:21;;;;;;;4.50;1.37;;;;;;;9.32;89.15;101777.13;4973631;28;20192;-79
2021/10/12 02:41:46;;;;;;;3.30;1.20;;;;;;;9.28;88.39;101775.25;4957529;28;20221;-79
2021/10/12 02:44:12;;;;;;;3.57;1.10;;;;;;;9.25;88.72;101775.13;4973632;28;20208;-79
2021/10/12 02:46:37;;;;;;;2.10;0.90;;;;;;;9.20;88.72;101770.63;4957939;28;20192;-78
2021/10/12 02:49:02;;;;;;;3.00;1.23;;;;;;;9.17;89.17;101775.63;4973705;28;20189;-80
2021/10/12 02:51:28;;;;;;;1.27;1.07;;;;;;;9.15;89.15;101770.47;4973513;28;20328;-78
2021/10/12 02:53:53;;;;;;;2.43;1.40;;;;;;;9.09;89.13;101764.22;4973944;28;20260;-78
2021/10/12 02:56:18;;;;;;;3.07;1.27;;;;;;;9.09;89.19;101774.44;4957601;28;20202;-79
2021/10/12 02:58:44;;;;;;;2.50;1.50;;;;;;;9.10;88.57;101764.31;4957837;28;20196;-77
2021/10/12 03:01:09;;;;;;;3.37;1.60;;;;;;;9.08;89.49;101762.50;4975010;28;20356;-79
2021/10/12 03:03:35;;;;;;;6.37;1.40;;;;;;;9.02;89.23;101769.88;4973539;28;20189;-78
2021/10/12 03:06:00;;;;;;;2.93;1.43;;;;;;;8.99;89.32;101754.47;4973923;28;20500;-77
2021/10/12 03:08:26;;;;;;;4.60;1.40;;;;;;;8.95;89.36;101758.59;4973926;28;20220;-77
2021/10/12 03:10:51;;;;;;;3.50;1.50;;;;;;;8.94;89.11;101756.81;4973711;28;20193;-80
2021/10/12 03:13:16;;;;;;;4.37;1.27;;;;;;;8.96;88.88;101760.31;4974559;28;20656;-78
2021/10/12 03:15:43;;;;;;;4.10;1.60;;;;;;;8.93;90.10;101755.06;4973653;28;20216;-79
2021/10/12 03:18:08;;;;;;;3.60;1.33;;;;;;;8.92;89.57;101745.69;4973570;28;20189;-80
2021/10/12 03:20:34;;;;;;;3.00;0.97;;;;;;;8.95;88.93;101752.59;4973117;28;20188;-79
2021/10/12 03:22:59;;;;;;;1.93;1.20;;;;;;;8.97;89.06;101745.84;4973080;28;20197;-77
2021/10/12 03:25:25;;;;;;;2.37;0.90;;;;;;;9.00;88.46;101746.88;4973416;28;20221;-77
2021/10/12 03:27:50;;;;;;;1.83;0.90;;;;;;;9.01;89.18;101756.25;4973390;28;20196;-79
2021/10/12 03:30:15;;;;;;;3.60;0.97;;;;;;;9.05;89.21;101753.03;4973133;28;20231;-79
2021/10/12 03:32:41;;;;;;;1.37;0.80;;;;;;;9.07;88.32;101760.75;4973465;28;20195;-78
2021/10/12 03:35:07;;;;;;;1.50;1.13;;;;;;;9.07;89.22;101747.97;4972970;28;20209;-79
2021/10/12 03:37:32;;;;;;;1.50;0.67;;;;;;;9.08;88.66;101745.47;4971490;28;20185;-79
2021/10/12 03:39:57;;;;;;;2.03;0.70;;;;;;;9.10;88.53;101741.31;4956641;28;20211;-78
2021/10/12 03:42:23;;;;;;;1.93;0.80;;;;;;;9.09;88.38;101752.34;4973442;28;20216;-79
2021/10/12 03:44:48;;;;;;;2.00;0.80;;;;;;;9.10;88.78;101748.97;4973291;28;20204;-79
2021/10/12 03:47:13;;;;;;;1.63;0.83;;;;;;;9.09;88.67;101742.13;4956270;28;20193;-79
2021/10/12 03:49:39;;;;;;;4.83;1.30;;;;;;;9.10;88.65;101733.63;4974262;28;20196;-78
2021/10/12 03:52:04;;;;;;;3.23;0.83;;;;;;;9.09;89.22;101723.34;4973597;28;20196;-79
2021/10/12 03:54:29;;;;;;;1.83;0.77;;;;;;;9.07;89.06;101723.28;4958366;28;20608;-79
2021/10/12 03:56:55;;;;;;;2.07;0.90;;;;;;;9.07;89.26;101733.50;4958222;28;20286;-78
2021/10/12 03:59:20;;;;;;;2.87;0.90;;;;;;;9.08;89.12;101727.59;4975211;28;20195;-79
2021/10/12 04:01:45;;;;;;;3.87;0.80;;;;;;;9.08;89.02;101711.41;4958706;28;20212;-79
2021/10/12 04:04:11;;;;;;;0.57;0.50;;;;;;;9.06;89.35;101719.00;4990335;28;20298;-80
2021/10/12 04:06:36;;;;;;;1.50;0.80;;;;;;;9.04;89.02;101720.59;4974296;28;20216;-79
2021/10/12 04:09:02;;;;;;;1.67;0.80;;;;;;;9.04;89.08;101714.66;4974125;28;20283;-78
2021/10/12 04:11:27;;;;;;;0.87;0.70;;;;;;;9.06;88.58;101716.44;4990461;28;20191;-80
2021/10/12 04:13:53;;;;;;;3.33;1.10;;;;;;;9.06;88.85;101710.44;4990879;28;20195;-79
2021/10/12 04:16:18;;;;;;;3.50;0.90;;;;;;;9.02;88.35;101708.59;4956317;28;20248;-78
2021/10/12 04:18:44;;;;;;;2.20;0.70;;;;;;;9.02;89.10;101701.81;4955491;28;20196;-79
2021/10/12 04:21:11;;;;;;;2.40;0.80;;;;;;;9.05;88.73;101703.59;4955593;28;20221;-79
2021/10/12 04:23:38;;;;;;;1.70;0.80;;;;;;;9.02;88.91;101696.69;4974218;28;20191;-77
2021/10/12 04:26:08;;;;;;;3.47;0.90;;;;;;;9.01;88.84;101689.84;4974629;28;20227;-78
2021/10/12 04:28:33;;;;;;;2.50;1.03;;;;;;;8.98;89.18;101692.28;4974234;28;20271;-79
2021/10/12 04:30:59;;;;;;;3.07;0.93;;;;;;;8.98;88.92;101687.16;4973364;28;20272;-79
2021/10/12 04:33:24;;;;;;;3.37;1.10;;;;;;;9.01;88.65;101687.28;4973113;28;20216;-80
2021/10/12 04:35:50;;;;;;;2.60;1.10;;;;;;;9.00;89.38;101688.13;4971960;28;20216;-78
2021/10/12 04:38:15;;;;;;;3.37;1.10;;;;;;;8.99;89.19;101685.50;4971985;28;20188;-80
2021/10/12 04:40:42;;;;;;;2.93;1.30;;;;;;;8.97;89.61;101674.34;4973118;28;20695;-79
2021/10/12 04:43:08;;;;;;;4.73;1.03;;;;;;;8.93;89.12;101678.47;4955915;28;20238;-79
2021/10/12 04:45:36;;;;;;;4.30;1.33;;;;;;;8.92;89.05;101669.06;4956807;28;20245;-77
2021/10/12 04:48:03;;;;;;;2.77;1.10;;;;;;;8.94;89.09;101684.44;4975739;28;20275;-77
2021/10/12 04:50:29;;;;;;;2.03;1.30;;;;;;;8.94;89.25;101681.91;4977507;28;20189;-78
2021/10/12 04:52:58;;;;;;;4.90;1.60;;;;;;;8.92;89.37;101679.28;4961708;28;20188;-80
2021/10/12 04:55:24;;;;;;;3.63;1.50;;;;;;;8.90;89.38;101674.91;4978405;28;20208;-79
2021/10/12 04:57:49;;;;;;;1.73;1.30;;;;;;;8.87;88.83;101685.88;4960962;28;20272;-78
2021/10/12 05:00:15;;;;;;;2.83;1.53;;;;;;;8.91;89.04;101682.66;4975776;28;20680;-80
2021/10/12 05:02:41;;;;;;;4.17;1.50;;;;;;;8.90;89.24;101685.13;4977530;28;20241;-79
2021/10/12 05:05:06;;;;;;;2.63;1.37;;;;;;;8.92;88.70;101673.28;4977535;28;20577;-79
2021/10/12 05:07:32;;;;;;;4.73;1.70;;;;;;;8.94;88.50;101671.69;4976503;28;20672;-80
2021/10/12 05:09:57;;;;;;;2.90;1.70;;;;;;;8.91;89.01;101671.53;4977945;28;20180;-79
2021/10/12 05:12:23;;;;;;;3.60;1.77;;;;;;;8.89;88.55;101675.75;4960636;28;20220;-78
2021/10/12 05:14:48;;;;;;;2.50;1.80;;;;;;;8.85;89.05;101673.88;4960021;28;20231;-78
2021/10/12 05:17:24;;;;;;;4.90;2.10;;;;;;;8.84;88.37;101672.97;4976031;28;20235;-79
2021/10/12 05:19:49;;;;;;;2.80;1.70;;;;;;;8.84;89.00;101672.97;4976026;28;20192;-77
2021/10/12 05:22:15;;;;;;;3.93;2.33;;;;;;;8.83;88.61;101668.69;4978780;28;20258;-78
2021/10/12 05:24:43;;;;;;;4.03;2.07;;;;;;;8.85;88.90;101678.97;4959570;28;20236;-78
2021/10/12 05:27:08;;;;;;;5.30;2.70;;;;;;;8.90;88.88;101663.00;4976231;28;20231;-78
2021/10/12 05:29:36;;;;;;;4.30;2.30;;;;;;;8.91;88.82;101662.22;4992556;28;20232;-79
2021/10/12 05:32:01;;;;;;;3.43;2.20;;;;;;;8.89;89.37;101668.94;4976613;28;20184;-78
2021/10/12 05:34:27;;;;;;;4.57;2.20;;;;;;;8.87;88.93;101665.47;4993037;28;20231;-80
2021/10/12 05:36:52;;;;;;;3.43;2.27;;;;;;;8.84;88.64;101665.31;4976313;28;20658;-79
2021/10/12 05:39:18;;;;;;;6.37;2.53;;;;;;;8.84;89.41;101662.78;4977492;28;20180;-80
2021/10/12 05:41:43;;;;;;;5.60;2.60;;;;;;;8.85;88.35;101671.31;4976685;28;20216;-80
2021/10/12 05:44:08;;;;;;;6.30;3.10;;;;;;;8.78;89.17;101666.75;4977164;28;20545;-80
2021/10/12 05:46:34;;;;;;;5.50;3.07;;;;;;;8.74;89.02;101673.44;4960110;28;20275;-78
2021/10/12 05:48:59;;;;;;;4.70;2.70;;;;;;;8.77;89.45;101676.13;4976546;28;20684;-79
2021/10/12 05:51:26;;;;;;;3.47;2.70;;;;;;;8.77;89.39;101675.25;4976115;28;20684;-80
2021/10/12 05:53:54;;;;;;;4.67;3.30;;;;;;;8.75;89.69;101674.31;4960071;28;20588;-77
2021/10/12 05:56:23;;;;;;;6.00;3.17;;;;;;;8.78;89.26;101677.88;4975373;28;20193;-78
2021/10/12 05:58:49;;;;;;;6.60;3.77;;;;;;;8.78;89.31;101677.88;4975394;28;20231;-79
2021/10/12 06:01:16;;;;;;;5.03;3.33;;;;;;;8.80;89.34;101678.78;4975701;28;20689;-79
2021/10/12 06:03:42;;;;;;;4.53;3.43;;;;;;;8.80;89.31;101673.66;4959469;28;20203;-79
2021/10/12 06:06:08;;;;;;;7.10;3.77;;;;;;;8.80;89.00;101676.22;4976011;28;20181;-78
2021/10/12 06:08:34;;;;;;;4.33;3.47;;;;;;;8.81;89.41;101677.09;4959735;28;20280;-80
2021/10/12 06:11:01;;;;;;;6.27;3.47;;;;;;;8.84;89.01;101679.78;4976194;28;20181;-80
2021/10/12 06:13:27;;;;;;;4.83;4.10;;;;;;;8.81;88.19;101682.22;4975338;28;20195;-79
2021/10/12 06:15:53;;;;;;;5.63;4.17;;;;;;;8.79;88.69;101679.59;4959130;28;20220;-80
2021/10/12 06:18:21;;;;;;;6.67;3.90;;;;;;;8.78;88.18;101680.41;4975417;28;20189;-78
2021/10/12 06:20:48;;;;;;;5.57;4.30;;;;;;;8.82;88.85;101681.41;4959311;28;20789;-79
2021/10/12 06:23:13;;;;;;;5.57;4.23;;;;;;;8.81;89.07;101682.22;4974713;28;20188;-79
2021/10/12 06:25:39;;;;;;;5.93;4.80;;;;;;;8.88;88.78;101679.97;4974674;28;20207;-78
2021/10/12 06:28:05;;;;;;;7.00;3.97;;;;;;;8.93;88.49;101682.69;4974734;28;20193;-78
2021/10/12 06:30:31;;;;;;;6.17;4.10;;;;;;;8.97;88.56;101697.31;4974728;28;20201;-79
2021/10/12 06:32:56;;;;;;;7.00;4.40;;;;;;;9.01;88.40;101696.63;4976306;28;20259;-80
2021/10/12 06:35:22;;;;;;;7.53;4.53;;;;;;;9.05;88.84;101696.81;4975516;28;20608;-80
2021/10/12 06:37:47;;;;;;;6.90;4.70;;;;;;;9.14;88.62;101697.19;4974221;28;20180;-79
2021/10/12 06:40:13;;;;;;;6.47;4.80;;;;;;;9.31;88.64;101700.38;4974093;28;20203;-80
2021/10/12 06:42:39;;;;;;;6.47;4.13;;;;;;;9.32;88.25;101703.00;4957801;28;20217;-80
2021/10/12 06:45:05;;;;;;;6.63;4.57;;;;;;;9.25;88.86;101702.69;4957714;28;20349;-79
2021/10/12 06:47:30;;;;;;;5.23;4.00;;;;;;;9.23;88.13;101705.22;4973653;28;20193;-79
2021/10/12 06:49:55;;;;;;;6.87;4.03;;;;;;;9.33;87.85;101708.97;4974560;28;20200;-78
2021/10/12 06:52:21;;;;;;;4.90;3.60;;;;;;;9.37;87.79;101708.28;4976579;28;20208;-79
2021/10/12 06:54:49;;;;;;;6.20;4.17;;;;;;;9.48;87.38;101705.31;4991052;28;20252;-78
2021/10/12 06:57:14;;;;;;;5.40;3.93;;;;;;;9.57;87.25;101699.66;4974788;28;20286;-78
2021/10/12 06:59:39;;;;;;;6.50;3.83;;;;;;;9.66;87.21;101706.00;4975663;28;20268;-78
2021/10/12 07:02:05;;;;;;;5.73;3.43;;;;;;;9.77;86.85;101707.25;4957948;28;20594;-80
2021/10/12 07:04:31;;;;;;;5.87;3.80;;;;;;;9.87;86.51;101708.47;4974559;28;20232;-77
2021/10/12 07:06:56;;;;;;;6.03;4.00;;;;;;;9.93;86.56;101709.53;4975461;28;20924;-78
2021/10/12 07:09:22;;;;;;;5.13;3.93;;;;;;;10.05;87.08;101704.88;4974667;28;20204;-78
2021/10/12 07:11:47;;;;;;;7.07;4.67;;;;;;;10.29;85.80;101703.19;4974673;28;20191;-80
2021/10/12 07:14:13;;;;;;;6.77;4.97;;;;;;;10.47;85.06;101700.38;4975931;28;20307;-78
2021/10/12 07:16:40;;;;;;;11.13;6.43;;;;;;;10.67;84.83;101702.78;4989797;28;20583;-79
2021/10/12 07:19:06;;;;;;;8.93;5.93;;;;;;;10.87;83.75;101706.84;4957897;28;20193;-80
2021/10/12 07:21:32;;;;;;;10.13;4.67;;;;;;;11.02;82.90;101697.06;4958676;28;20278;-80
2021/10/12 07:23:57;;;;;;;6.47;3.30;;;;;;;11.22;82.47;101692.56;4974260;28;20213;-78
2021/10/12 07:26:23;;;;;;;7.00;3.40;;;;;;;11.30;82.64;101696.22;4974240;28;20199;-78
2021/10/12 07:28:48;;;;;;;5.50;1.83;;;;;;;11.44;80.88;101706.09;4975400;28;20212;-79
2021/10/12 07:31:14;;;;;;;4.27;2.20;;;;;;;11.60;80.36;101698.03;4974909;28;20188;-78
2021/10/12 07:33:39;;;;;;;5.63;2.07;;;;;;;11.74;79.77;101696.72;4975942;28;20219;-78
2021/10/12 07:36:04;;;;;;;5.80;2.07;;;;;;;11.91;78.67;101694.63;4974540;28;20199;-78
2021/10/12 07:38:30;;;;;;;6.17;1.77;;;;;;;11.94;77.38;101702.41;4976048;28;20227;-76
2021/10/12 07:40:56;;;;;;;3.60;1.37;;;;;;;11.96;77.59;101698.19;4974759;28;20263;-77
2021/10/12 07:43:21;;;;;;;3.17;1.40;;;;;;;12.25;75.71;101703.28;4974955;28;20193;-78
2021/10/12 07:45:48;;;;;;;4.43;1.40;;;;;;;12.35;76.09;101699.25;4976054;28;20236;-79
2021/10/12 07:48:18;;;;;;;5.33;1.37;;;;;;;12.40;74.64;101702.81;4974798;28;20187;-77
2021/10/12 07:50:44;;;;;;;4.53;1.30;;;;;;;12.65;73.57;101695.75;4974532;28;20207;-79
2021/10/12 07:53:10;;;;;;;5.80;1.17;;;;;;;12.76;71.34;101690.88;4974812;28;20283;-79
2021/10/12 07:55:43;;;;;;;6.50;1.00;;;;;;;12.79;71.02;101699.53;4958945;28;20208;-78
2021/10/12 07:58:08;;;;;;;6.03;1.00;;;;;;;12.88;70.66;101691.16;4974866;28;20275;-78
2021/10/12 08:00:34;;;;;;;6.00;1.00;;;;;;;13.08;70.16;101689.09;4958466;28;20559;-78
2021/10/12 08:03:01;;;;;;;4.30;1.10;;;;;;;13.20;69.22;101691.91;4976993;28;20532;-76
2021/10/12 08:05:28;;;;;;;5.10;1.00;;;;;;;13.19;67.26;101685.91;4976622;28;20212;-77
2021/10/12 08:07:55;;;;;;;4.67;1.23;;;;;;;13.53;67.78;101682.38;4976459;28;20188;-78
2021/10/12 08:10:21;;;;;;;3.90;1.23;;;;;;;13.54;66.47;101686.69;4975617;28;20690;-78
2021/10/12 08:12:50;;;;;;;3.33;0.97;;;;;;;13.69;64.61;101679.25;4974037;28;20195;-78
2021/10/12 08:15:15;;;;;;;4.90;1.00;;;;;;;13.99;64.70;101682.47;4975075;28;20236;-79
2021/10/12 08:17:41;;;;;;;4.70;1.50;;;;;;;14.02;65.16;101683.38;4974773;28;20634;-77
2021/10/12 08:20:07;;;;;;;6.93;1.37;;;;;;;14.19;61.87;101673.38;4975383;28;20231;-78
2021/10/12 08:22:32;;;;;;;4.53;1.37;;;;;;;14.32;63.04;101677.94;4972946;28;20208;-78
2021/10/12 08:24:58;;;;;;;2.53;0.90;;;;;;;14.41;62.74;101678.97;4975049;28;20208;-79
2021/10/12 08:27:24;;;;;;;4.53;1.13;;;;;;;14.65;61.49;101675.94;4973588;28;20219;-79
2021/10/12 08:29:49;;;;;;;5.93;1.27;;;;;;;14.75;60.95;101675.22;4975259;28;20208;-78
2021/10/12 08:32:15;;;;;;;2.23;0.80;;;;;;;15.02;61.54;101678.22;4973245;28;20284;-79
2021/10/12 08:34:40;;;;;;;4.87;1.20;;;;;;;14.93;61.00;101680.69;4973619;28;20209;-78
2021/10/12 08:37:06;;;;;;;6.70;1.37;;;;;;;15.17;59.48;101678.44;4974761;28;20239;-77
2021/10/12 08:39:31;;;;;;;4.00;1.40;;;;;;;15.24;58.45;101680.28;4974806;28;20227;-78
2021/10/12 08:42:10;;;;;;;4.77;1.20;;;;;;;15.24;56.84;101675.13;4973702;28;20216;-77
2021/10/12 08:44:51;;;;;;;2.40;1.23;;;;;;;15.63;57.97;101675.66;4975642;28;20809;-78
2021/10/12 08:47:22;;;;;;;4.33;1.13;;;;;;;15.70;56.07;101670.59;4975165;28;20192;-78
2021/10/12 08:49:47;;;;;;;5.43;1.13;;;;;;;15.57;56.30;101671.28;4973663;28;20579;-78
2021/10/12 08:52:12;;;;;;;4.80;1.33;;;;;;;16.07;55.69;101664.13;4973897;28;20195;-78
2021/10/12 08:54:38;;;;;;;3.30;1.17;;;;;;;16.25;53.58;101669.47;4975769;28;20295;-78
2021/10/12 08:57:03;;;;;;;2.73;1.20;;;;;;;16.98;52.84;101667.53;4975748;28;20220;-77
2021/10/12 08:59:28;;;;;;;3.30;1.07;;;;;;;20.61;43.02;101648.25;4958563;28;20180;-77
2021/10/12 09:01:59;;;;;;;5.27;1.20;;;;;;;25.13;34.01;101619.16;4973920;28;20252;-78
2021/10/12 09:04:36;;;;;;;2.80;1.00;;;;;;;26.09;31.06;101622.44;4973905;28;20216;-78
2021/10/12 09:07:01;;;;;;;2.57;1.10;;;;;;;26.72;30.97;101628.25;4974810;28;20183;-79
2021/10/12 09:09:34;;;;;;;2.30;1.05;;;;;;;28.07;28.58;101620.53;4975024;28;20185;-80
2021/10/12 09:12:00;;;;;;;2.88;1.08;;;;;;;26.74;30.04;101620.28;4975949;28;20196;-78
2021/10/12 09:14:26;;;;;;;1.85;1.15;;;;;;;28.52;28.48;101612.53;4975096;28;20205;-79
2021/10/12 09:17:05;;;;;;;3.90;1.35;;;;;;;29.59;26.08;101617.41;4975961;28;20165;-80
2021/10/12 09:19:33;;;;;;;3.00;1.33;;;;;;;27.59;29.00;101625.03;4973922;28;20645;-78
2021/10/12 09:22:04;;;;;;;3.08;1.30;;;;;;;28.42;27.32;101621.75;4973678;28;20220;-78
2021/10/12 09:24:36;;;;;;;4.13;1.40;;;;;;;29.34;26.23;101611.50;4975153;28;20219;-78
2021/10/12 09:27:05;;;;;;;3.10;1.20;;;;;;;30.15;25.41;101611.22;4973470;28;20197;-80
2021/10/12 09:29:36;;;;;;;4.40;1.30;;;;;;;30.13;25.42;101614.78;4957842;28;20203;-79
2021/10/12 09:32:04;;;;;;;3.25;1.58;;;;;;;30.84;24.36;101613.84;4974991;28;20207;-79
2021/10/12 09:34:31;;;;;;;2.75;1.23;;;;;;;30.93;23.57;101612.53;4976245;28;20208;-79
2021/10/12 09:36:57;;;;;;;2.50;1.30;;;;;;;30.78;24.66;101618.59;4961492;28;20184;-78
2021/10/12 09:39:22;;;;;;;3.95;1.65;;;;;;;30.75;24.25;101611.66;4977632;28;20203;-79
2021/10/12 09:42:02;;;;;;;3.63;1.30;;;;;;;29.66;24.87;101617.97;4977116;28;20228;-79
2021/10/12 09:44:31;;;;;;;2.78;1.60;;;;;;;32.20;23.07;101604.53;4976469;28;20208;-79
2021/10/12 09:47:09;;;;;;;1.45;1.30;;;;;;;31.90;23.51;101607.13;4977057;28;20192;-78
2021/10/12 09:49:35;;;;;;;3.72;1.48;;;;;;;29.69;25.49;101610.75;4976866;28;20541;-80
2021/10/12 09:52:06;;;;;;;1.95;1.55;;;;;;;29.81;23.88;101604.91;4977303;28;20212;-78
2021/10/12 09:54:46;;;;;;;2.97;1.48;;;;;;;28.64;25.68;101609.41;4978831;28;20213;-77
2021/10/12 09:57:12;;;;;;;2.53;1.60;;;;;;;29.93;24.48;101600.81;4978427;28;20244;-79
2021/10/12 09:59:38;;;;;;;3.88;1.70;;;;;;;31.22;22.95;101599.50;4977331;28;20275;-79
2021/10/12 10:02:03;;;;;;;3.45;1.52;;;;;;;29.39;24.73;101601.56;4977882;28;20666;-79
2021/10/12 10:04:30;;;;;;;3.33;1.55;;;;;;;30.34;23.91;101591.72;4976858;28;20251;-79
2021/10/12 10:07:04;;;;;;;2.40;1.60;;;;;;;29.79;23.87;101596.19;4960361;28;20257;-80
2021/10/12 10:09:30;;;;;;;2.83;1.67;;;;;;;30.02;24.33;101595.94;4993206;28;20199;-79
2021/10/12 10:11:55;;;;;;;4.00;1.70;;;;;;;31.51;22.88;101598.75;4978613;28;20200;-80
2021/10/12 10:14:21;;;;;;;3.40;1.40;;;;;;;30.59;22.71;101600.13;4960629;28;20212;-78
2021/10/12 10:16:52;;;;;;;3.88;1.70;;;;;;;31.47;23.10;101609.56;4976658;28;20204;-79
2021/10/12 10:19:31;;;;;;;2.78;1.63;;;;;;;32.73;22.21;101599.63;4978028;28;20277;-79
2021/10/12 10:21:56;;;;;;;2.65;1.30;;;;;;;30.13;23.90;101602.50;4977815;28;20216;-80
2021/10/12 10:24:39;;;;;;;3.08;1.63;;;;;;;29.43;25.06;101602.31;4974103;28;20582;-78
2021/10/12 10:27:05;;;;;;;2.72;1.38;;;;;;;31.17;22.65;101604.13;4973190;28;20189;-79
2021/10/12 10:29:36;;;;;;;3.95;1.65;;;;;;;32.35;22.06;101599.22;4973392;28;20212;-78
2021/10/12 10:32:14;;;;;;;3.83;1.50;;;;;;;31.35;22.48;101591.72;4974611;28;20173;-79
2021/10/12 10:34:43;;;;;;;3.97;1.35;;;;;;;31.89;22.65;101602.78;4973396;28;20692;-79
2021/10/12 10:37:17;;;;;;;3.45;1.60;;;;;;;33.27;20.39;101597.09;4974527;28;20744;-78
2021/10/12 10:39:54;;;;;;;3.88;1.60;;;;;;;32.10;21.99;101600.72;4974756;28;20610;-79
2021/10/12 10:42:25;;;;;;;3.65;1.58;;;;;;;32.12;21.72;101604.13;4973371;28;20234;-78
2021/10/12 10:45:05;;;;;;;2.15;1.20;;;;;;;32.77;21.97;101596.66;4974830;28;20570;-78
2021/10/12 10:47:47;;;;;;;2.10;1.23;;;;;;;33.33;20.69;101587.94;4975087;28;20169;-80
2021/10/12 10:50:27;;;;;;;2.60;1.80;;;;;;;34.48;20.87;101588.25;4974910;28;20193;-79
2021/10/12 10:52:55;;;;;;;2.47;1.40;;;;;;;32.94;21.08;101598.34;4975422;28;20177;-79
2021/10/12 10:55:21;;;;;;;3.63;1.55;;;;;;;33.33;21.45;101586.13;4974150;28;20219;-78
2021/10/12 10:58:20;;;;;;;2.53;1.73;;;;;;;31.37;22.06;101600.44;4975300;28;20251;-78
2021/10/12 11:00:54;;;;;;;3.05;1.15;;;;;;;27.88;25.89;101601.13;4974023;28;20665;-78
2021/10/12 11:03:32;;;;;;;3.67;1.30;;;;;;;28.37;25.62;101607.88;4975217;28;20185;-78
2021/10/12 11:06:10;;;;;;;2.60;1.17;;;;;;;28.01;26.95;101602.34;4973651;28;20701;-77
2021/10/12 11:08:39;;;;;;;2.42;0.90;;;;;;;30.51;24.46;101593.53;4957807;28;20199;-79
2021/10/12 11:11:07;;;;;;;2.00;1.00;;;;;;;24.72;30.28;101615.06;4975157;28;20173;-78
2021/10/12 11:13:43;;;;;;;5.20;1.45;;;;;;;23.60;32.37;101626.44;4975072;28;20259;-77
2021/10/12 11:16:17;;;;;;;3.70;1.03;;;;;;;21.20;37.13;101638.16;4975220;28;20219;-77
2021/10/12 11:18:46;;;;;;;2.87;1.23;;;;;;;20.47;38.33;101632.78;4975840;28;20540;-78
2021/10/12 11:21:16;;;;;;;4.40;1.00;;;;;;;20.26;39.18;101638.13;4975008;28;20493;-77
2021/10/12 11:23:48;;;;;;;2.60;1.10;;;;;;;21.98;36.44;101621.50;4975688;28;20209;-77
2021/10/12 11:26:19;;;;;;;3.63;1.10;;;;;;;20.16;38.89;101633.88;4973815;28;20216;-77
2021/10/12 11:29:13;;;;;;;4.17;1.03;;;;;;;20.55;38.95;101627.50;4975411;28;20210;-78